Camp Elliot (770) Station Data

Red Flag Warning: No
Fire Weather Zone: 243
SDGE Region: Beach Cities
Lat/Lon: 32.852/-117.118

Observations

Time Wind Speed/Gust Temp(F) RH Fuel Moist Fuel Temp(F) Dewpt(F) Tmax(F) Tmin(F) Accum Precip 10-min Precip SL Press(mb)
4/30 12:00am 59 3 G 5 63° 27% - - 29° 80° 54.4° - - -
4/29 11:50pm 61 4 G 6 63° 27% - - 29° 80° 54.4° - - -
4/29 11:40pm 49 5 G 7 63° 27% - - 29° 80° 54.4° - - -
4/29 11:30pm 42 5 G 6 63° 26% - - 28° 80° 54.4° - - -
4/29 11:20pm 40 4 G 6 63° 25% - - 27° 80° 54.4° - - -
4/29 11:10pm 30 3 G 4 63° 24% - - 26° 80° 54.4° - - -
4/29 11:00pm 4 2 G 4 62° 25% - - 27° 80° 54.4° - - -
4/29 10:50pm 58 2 G 4 64° 24% - - 27° 80° 54.4° - - -
4/29 10:40pm 58 3 G 4 63° 25% - - 27° 80° 54.4° - - -
4/29 10:30pm 40 2 G 3 62° 28% - - 28° 80° 54.4° - - -
4/29 10:20pm 88 2 G 3 63° 28% - - 29° 80° 54.4° - - -
4/29 10:10pm 57 3 G 4 65° 26% - - 29° 80° 54.4° - - -
4/29 10:00pm 29 3 G 5 65° 26% - - 30° 80° 54.4° - - -
4/29 9:50pm 25 4 G 6 65° 27% - - 30° 80° 54.4° - - -
4/29 9:40pm 33 3 G 6 65° 27% - - 31° 80° 54.4° - - -
4/29 9:30pm 36 4 G 5 65° 27% - - 31° 80° 54.4° - - -
4/29 9:20pm 26 4 G 7 65° 28% - - 31° 80° 54.4° - - -
4/29 9:10pm 6 4 G 7 66° 28% - - 32° 80° 54.4° - - -
4/29 9:00pm 15 5 G 6 66° 28% - - 32° 80° 54.4° - - -
4/29 8:50pm 357 5 G 8 66° 27% - - 31° 80° 54.4° - - -
4/29 8:40pm 354 6 G 9 66° 27% - - 31° 80° 54.4° - - -
4/29 8:30pm 355 7 G 10 67° 26% - - 31° 80° 54.4° - - -
4/29 8:20pm 355 7 G 9 67° 26% - - 31° 80° 54.4° - - -
4/29 8:10pm 347 6 G 11 68° 26% - - 31° 80° 54.4° - - -
4/29 8:00pm 351 7 G 12 68° 27% - - 33° 80° 54.4° - - -
4/29 7:50pm 356 8 G 14 68° 29% - - 35° 80° 54.4° - - -
4/29 7:40pm 339 7 G 11 68° 32% - - 38° 80° 54.4° - - -
4/29 7:30pm 331 8 G 13 69° 29% - - 36° 80° 54.4° - - -
4/29 7:20pm 330 7 G 11 70° 25% - - 33° 80° 54.4° - - -
4/29 7:10pm 328 7 G 11 71° 22% - - 30° 80° 54.4° - - -
4/29 7:00pm 297 6 G 10 72° 21% - - 29° 80° 54.4° - - -
4/29 6:50pm 301 6 G 10 72° 20% - - 29° 80° 54.4° - - -
4/29 6:40pm 313 9 G 15 72° 18% - - 26° 80° 54.4° - - -
4/29 6:30pm 318 9 G 14 73° 17% - - 25° 80° 54.4° - - -
4/29 6:20pm 303 9 G 14 73° 16% - - 25° 80° 54.4° - - -
4/29 6:10pm 305 9 G 14 74° 15% - - 23° 80° 54.4° - - -
4/29 6:00pm 302 9 G 15 74° 14% - - 21° 80° 54.4° - - -
4/29 5:50pm 310 11 G 16 74° 13% - - 19° 80° 54.4° - - -
4/29 5:40pm 304 11 G 17 74° 13% - - 20° 80° 54.4° - - -
4/29 5:30pm 294 9 G 14 75° 13% - - 20° 80° 54.4° - - -
4/29 5:20pm 286 9 G 15 74° 12% - - 19° 80° 54.4° - - -
4/29 5:10pm 285 10 G 15 74° 12% - - 19° 80° 54.4° - - -
4/29 5:00pm 300 10 G 16 75° 12% - - 19° 80° 54.4° - - -
4/29 4:50pm 296 11 G 17 75° 11% - - 16° 80° 54.4° - - -
4/29 4:40pm 299 10 G 16 76° 10% - - 15° 80° 54.4° - - -
4/29 4:30pm 304 10 G 17 77° 10% - - 17° 80° 54.4° - - -
4/29 4:20pm 298 12 G 18 76° 11% - - 17° 80° 54.4° - - -
4/29 4:10pm 289 11 G 17 76° 11% - - 18° 80° 54.4° - - -
4/29 4:00pm 285 10 G 16 77° 10% - - 17° 80° 54.4° - - -
4/29 3:50pm 290 10 G 15 78° 10% - - 17° 80° 54.4° - - -
4/29 3:40pm 288 10 G 16 77° 10% - - 17° 80° 54.4° - - -
4/29 3:30pm 304 9 G 16 77° 11% - - 18° 80° 54.4° - - -
4/29 3:20pm 308 10 G 17 77° 11% - - 19° 80° 54.4° - - -
4/29 3:10pm 307 11 G 17 77° 12% - - 20° 80° 54.4° - - -
4/29 3:00pm 302 11 G 16 77° 11% - - 19° 80° 54.4° - - -
4/29 2:50pm 307 11 G 16 78° 11% - - 20° 80° 54.4° - - -
4/29 2:40pm 296 12 G 18 78° 11% - - 19° 80° 54.4° - - -
4/29 2:30pm 290 11 G 17 78° 12% - - 21° 80° 54.4° - - -
4/29 2:20pm 271 11 G 17 78° 12% - - 22° 80° 54.4° - - -
4/29 2:10pm 277 10 G 16 78° 11% - - 20° 80° 54.4° - - -
4/29 2:00pm 274 10 G 15 79° 11% - - 20° 80° 54.4° - - -
4/29 1:50pm 268 9 G 16 79° 11% - - 20° 80° 54.4° - - -
4/29 1:40pm 294 8 G 15 79° 11% - - 19° 79.8° 54.4° - - -
4/29 1:30pm 274 10 G 15 78° 11% - - 18° 79.3° 54.4° - - -
4/29 1:20pm 267 8 G 14 78° 10% - - 17° 79.3° 54.4° - - -
4/29 1:10pm 296 6 G 13 78° 10% - - 18° 79.3° 54.4° - - -
4/29 1:00pm 271 7 G 14 78° 10% - - 18° 79.3° 54.4° - - -
4/29 12:50pm 277 8 G 15 77° 11% - - 18° 79.3° 54.4° - - -
4/29 12:40pm 272 10 G 17 77° 11% - - 18° 79.3° 54.4° - - -
4/29 12:30pm 275 9 G 16 77° 11% - - 18° 79.3° 54.4° - - -
4/29 12:20pm 263 9 G 15 77° 11% - - 18° 79.3° 54.4° - - -
4/29 12:10pm 265 10 G 15 77° 11% - - 18° 79.3° 54.4° - - -
4/29 12:00pm 274 10 G 16 77° 11% - - 19° 79.3° 54.4° - - -
4/29 11:50am 276 10 G 17 76° 12% - - 19° 79.3° 54.4° - - -
4/29 11:40am 255 11 G 18 77° 11% - - 19° 79.3° 54.4° - - -
4/29 11:30am 275 8 G 17 78° 10% - - 18° 79.3° 54.4° - - -
4/29 11:20am 209 5 G 13 78° 10% - - 17° 79.3° 54.4° - - -
4/29 11:10am 211 5 G 10 77° 10% - - 17° 77.4° 54.4° - - -
4/29 11:00am 199 6 G 11 76° 11% - - 17° 77° 54.4° - - -
4/29 10:50am 240 4 G 10 77° 11% - - 17° 77° 54.4° - - -
4/29 10:40am 263 5 G 11 76° 11% - - 17° 76.7° 54.4° - - -
4/29 10:30am 252 5 G 10 76° 11% - - 17° 76.7° 54.4° - - -
4/29 10:20am 152 3 G 9 76° 10% - - 16° 76.5° 54.4° - - -
4/29 10:10am 175 4 G 8 75° 11% - - 16° 76.1° 54.4° - - -
4/29 10:00am 232 4 G 8 75° 11% - - 16° 76.1° 54.4° - - -
4/29 9:50am 181 2 G 9 75° 11% - - 17° 76° 54.4° - - -
4/29 9:40am 247 3 G 6 74° 11% - - 16° 74.9° 54.4° - - -
4/29 9:30am 303 3 G 6 74° 11% - - 16° 74.8° 54.4° - - -
4/29 9:20am 306 3 G 7 73° 11% - - 16° 74° 54.4° - - -
4/29 9:10am 272 4 G 7 73° 11% - - 16° 73.9° 54.4° - - -
4/29 9:00am 313 2 G 6 73° 12% - - 16° 73.9° 54.4° - - -
4/29 8:50am 313 4 G 8 72° 12% - - 17° 73.1° 54.4° - - -
4/29 8:40am 313 4 G 6 72° 12% - - 16° 73.1° 54.4° - - -
4/29 8:30am 0 3 G 6 73° 12% - - 16° 73.1° 54.4° - - -
4/29 8:20am 355 2 G 6 71° 12% - - 15° 72.3° 54.4° - - -
4/29 8:10am 9 3 G 7 71° 12% - - 16° 71.5° 54.4° - - -
4/29 8:00am 345 3 G 7 70° 14% - - 18° 70.4° 54.4° - - -
4/29 7:50am 326 3 G 5 67° 18% - - 22° 68.2° 54.4° - - -
4/29 7:40am 328 3 G 4 66° 20% - - 24° 67.4° 54.4° - - -
4/29 7:30am 354 2 G 4 67° 20% - - 24° 67.4° 54.4° - - -
4/29 7:20am 14 2 G 4 66° 17% - - 20° 67.2° 54.4° - - -
4/29 7:10am 56 0 G 2 65° 19% - - 22° 65.8° 54.4° - - -
4/29 7:00am 85 1 G 3 64° 18% - - 19° 64.3° 54.4° - - -
4/29 6:50am 20 3 G 4 63° 15% - - 15° 64.2° 54.4° - - -
4/29 6:40am 350 0 G 1 63° 15% - - 15° 64.2° 54.4° - - -
4/29 6:30am 148 1 G 3 61° 17% - - 16° 64.2° 54.4° - - -
4/29 6:20am 144 0 G 2 61° 18% - - 17° 64.2° 54.4° - - -
4/29 6:10am 44 1 G 2 61° 18% - - 17° 64.2° 54.4° - - -
4/29 6:00am 12 3 G 4 61° 18% - - 18° 64.2° 54.4° - - -
4/29 5:50am 359 3 G 4 61° 20% - - 19° 64.2° 54.4° - - -
4/29 5:40am 74 1 G 2 61° 19% - - 19° 64.2° 54.4° - - -
4/29 5:30am 30 2 G 3 63° 18% - - 19° 64.2° 54.4° - - -
4/29 5:20am 34 2 G 3 63° 17% - - 17° 64.2° 54.4° - - -
4/29 5:10am 189 2 G 3 62° 20% - - 20° 62.6° 54.4° - - -
4/29 5:00am 167 0 G 2 61° 21% - - 21° 62.6° 54.4° - - -
4/29 4:50am 180 1 G 1 61° 22% - - 22° 62.6° 54.4° - - -
4/29 4:40am 202 1 G 2 62° 20% - - 21° 62.6° 54.4° - - -
4/29 4:30am 100 1 G 2 60° 24% - - 22° 61.3° 54.4° - - -
4/29 4:20am 156 2 G 3 58° 32% - - 28° 60.9° 54.4° - - -
4/29 4:10am 215 1 G 3 59° 31% - - 28° 60.9° 54.4° - - -
4/29 4:00am 184 1 G 4 59° 31% - - 28° 60.9° 54.4° - - -
4/29 3:50am 239 1 G 4 58° 34% - - 30° 60.9° 54.4° - - -
4/29 3:40am 237 1 G 3 55° 46% - - 35° 60.9° 54.4° - - -
4/29 3:30am 279 2 G 4 55° 48% - - 36° 60.9° 54.9° - - -
4/29 3:20am 38 3 G 5 59° 40% - - 34° 60.9° 55.5° - - -
4/29 3:10am 66 4 G 5 60° 39% - - 35° 60.9° 55.5° - - -
4/29 3:00am 18 3 G 5 60° 44% - - 38° 60.9° 55.5° - - -
4/29 2:50am 26 4 G 5 60° 47% - - 39° 60.9° 55.5° - - -
4/29 2:40am 42 4 G 5 58° 52% - - 41° 60.1° 55.5° - - -
4/29 2:30am 35 4 G 6 58° 51% - - 40° 60.1° 55.5° - - -
4/29 2:20am 30 2 G 3 57° 54% - - 41° 60.1° 55.5° - - -
4/29 2:10am 27 2 G 4 57° 55% - - 41° 60.1° 55.5° - - -
4/29 2:00am 19 5 G 6 57° 57% - - 42° 60.1° 55.5° - - -
4/29 1:50am 23 5 G 9 57° 57% - - 42° 60.1° 55.5° - - -
4/29 1:40am 6 7 G 9 56° 60% - - 42° 60.1° 55.5° - - -
4/29 1:30am 19 2 G 5 58° 59% - - 44° 60.1° 57° - - -
4/29 1:20am 36 3 G 4 58° 62% - - 45° 60.1° 57.5° - - -
4/29 1:10am 40 3 G 4 58° 65% - - 47° 60.1° 57.5° - - -
4/29 1:00am 58 3 G 4 58° 67% - - 47° 60.1° 57.5° - - -
4/29 12:50am 68 3 G 5 58° 69% - - 48° 60.1° 57.5° - - -
4/29 12:40am 76 2 G 4 58° 67% - - 48° 60.1° 57.8° - - -
4/29 12:30am 68 4 G 5 58° 63% - - 46° 60.1° 57.8° - - -
4/29 12:20am 68 2 G 4 59° 58% - - 44° 60.1° 58.1° - - -
4/29 12:10am 41 2 G 4 60° 56% - - 44° 60.1° 59.3° - - -
4/29 12:00am 24 2 G 4 60° 55% - - 44° 74.4° 55.4° - - -
4/28 11:50pm 280 1 G 2 60° 55% - - 44° 74.4° 55.4° - - -
4/28 11:40pm 114 0 G 1 61° 55% - - 44° 74.4° 55.4° - - -
4/28 11:30pm 91 1 G 2 60° 54% - - 44° 74.4° 55.4° - - -
4/28 11:20pm 124 2 G 3 60° 54% - - 44° 74.4° 55.4° - - -
4/28 11:10pm 87 1 G 2 60° 56% - - 44° 74.4° 55.4° - - -
4/28 11:00pm 126 3 G 7 60° 56% - - 44° 74.4° 55.4° - - -
4/28 10:50pm 53 2 G 4 61° 54% - - 44° 74.4° 55.4° - - -
4/28 10:40pm 169 1 G 3 61° 52% - - 43° 74.4° 55.4° - - -
4/28 10:30pm 239 1 G 2 61° 52% - - 43° 74.4° 55.4° - - -
4/28 10:20pm 340 0 G 1 62° 51% - - 43° 74.4° 55.4° - - -
4/28 10:10pm 29 1 G 2 62° 51% - - 44° 74.4° 55.4° - - -
4/28 10:00pm 57 1 G 1 62° 51% - - 43° 74.4° 55.4° - - -
4/28 9:50pm 69 2 G 4 61° 51% - - 43° 74.4° 55.4° - - -
4/28 9:40pm 64 2 G 4 61° 51% - - 43° 74.4° 55.4° - - -
4/28 9:30pm 101 2 G 3 61° 50% - - 43° 74.4° 55.4° - - -
4/28 9:20pm 92 2 G 3 62° 49% - - 43° 74.4° 55.4° - - -
4/28 9:10pm 80 3 G 6 64° 46% - - 43° 74.4° 55.4° - - -
4/28 9:00pm 3 2 G 4 65° 45% - - 43° 74.4° 55.4° - - -
4/28 8:50pm 46 3 G 5 65° 44% - - 43° 74.4° 55.4° - - -
4/28 8:40pm 10 4 G 6 65° 45% - - 43° 74.4° 55.4° - - -
4/28 8:30pm 334 4 G 6 65° 46% - - 44° 74.4° 55.4° - - -
4/28 8:20pm 299 3 G 4 65° 46% - - 44° 74.4° 55.4° - - -
4/28 8:10pm 322 4 G 7 65° 45% - - 44° 74.4° 55.4° - - -
4/28 8:00pm 336 5 G 9 66° 44% - - 43° 74.4° 55.4° - - -
4/28 7:50pm 338 4 G 7 66° 44% - - 43° 74.4° 55.4° - - -
4/28 7:40pm 315 1 G 4 66° 43% - - 43° 74.4° 55.4° - - -
4/28 7:30pm 330 4 G 7 67° 42% - - 43° 74.4° 55.4° - - -
4/28 7:20pm 320 6 G 11 67° 40% - - 42° 74.4° 55.4° - - -
4/28 7:10pm 331 5 G 11 68° 42% - - 44° 74.4° 55.4° - - -
4/28 7:00pm 322 5 G 8 68° 44% - - 45° 74.4° 55.4° - - -
4/28 6:50pm 320 5 G 8 68° 43% - - 45° 74.4° 55.4° - - -
4/28 6:40pm 345 5 G 12 68° 43% - - 45° 74.4° 55.4° - - -
4/28 6:30pm 345 5 G 8 68° 46% - - 46° 74.4° 55.4° - - -
4/28 6:20pm 326 5 G 9 68° 47% - - 47° 74.4° 55.4° - - -
4/28 6:10pm 292 6 G 9 68° 48% - - 48° 74.4° 55.4° - - -
4/28 6:00pm 285 7 G 10 68° 48% - - 48° 74.4° 55.4° - - -